Olinda, California
Current Conditions -  °F | °C
As of 7:53 PM on Sunday 21 Dec 2014 (Local Time) from KRDD Reporting Station
Overcast Overcast  
Wind Chill: 55°   Ceiling: 500
Heat Index: 55°   Visibility: 10mi
Dew Point: 54°   Wind: 5mph
Humidity: 96%   Direction: 360°N
Pressure: 30.28"   Gusts: NA
Location:  40.4495°N, 122.36°W
Report Text: KRDD 220353Z 36004KT 10SM OVC005 13/12 A3028 RMK AO2 SLP253 T01280122
Loading
Personal Weather Stations






























Interactive Weather Map New forecast layout! Learn more

10-Day Weather Forecast

Advertisements
Track Severe Weather on mobile